Time;durP1;ratioP1;P1;durP2;ratioP2;P2;SDS_P1;SDS_P2;PMS_P1;PMS_P2;Temp;Humidity;BMP_temperature;BMP_pressure;BME280_temperature;BME280_humidity;BME280_pressure;Samples;Min_cycle;Max_cycle;Signal;HPM_P1;HPM_P2
2021/12/12 00:00:53;;;;;;;18.25;10.15;;;5.40;99.90;;;;;;5026608;28;20033;-43
2021/12/12 00:03:38;;;;;;;19.95;10.40;;;5.40;99.90;;;;;;5028191;28;20041;-43
2021/12/12 00:06:27;;;;;;;21.60;10.80;;;5.40;99.90;;;;;;5037090;28;20033;-43
2021/12/12 00:08:57;;;;;;;12.45;8.93;;;5.40;99.90;;;;;;5032797;28;20048;-43
2021/12/12 00:11:28;;;;;;;14.45;9.05;;;5.40;99.90;;;;;;5029645;28;20053;-44
2021/12/12 00:13:59;;;;;;;16.63;9.10;;;5.40;99.90;;;;;;5030812;28;20384;-42
2021/12/12 00:16:25;;;;;;;19.70;10.30;;;5.40;99.90;;;;;;5027306;28;20022;-43
2021/12/12 00:18:51;;;;;;;22.38;10.65;;;5.40;99.90;;;;;;5033146;28;20045;-43
2021/12/12 00:21:20;;;;;;;20.48;10.93;;;5.40;99.90;;;;;;5029975;28;20083;-43
2021/12/12 00:23:46;;;;;;;17.70;9.38;;;5.40;99.90;;;;;;5028796;28;20029;-43
2021/12/12 00:26:11;;;;;;;19.05;10.50;;;5.40;99.90;;;;;;5028315;28;20030;-43
2021/12/12 00:28:39;;;;;;;22.60;10.73;;;5.40;99.90;;;;;;5032916;28;20017;-44
2021/12/12 00:31:17;;;;;;;17.90;10.65;;;5.40;99.90;;;;;;5035418;28;20030;-44
2021/12/12 00:33:47;;;;;;;17.88;10.43;;;5.40;99.90;;;;;;5033205;28;20025;-45
2021/12/12 00:36:17;;;;;;;18.02;10.00;;;5.40;99.90;;;;;;5035368;28;20029;-43
2021/12/12 00:38:53;;;;;;;17.08;9.35;;;5.40;99.90;;;;;;5031211;28;20098;-43
2021/12/12 00:41:44;;;;;;;15.93;9.05;;;5.50;99.90;;;;;;5036430;28;20124;-43
2021/12/12 00:44:12;;;;;;;19.75;9.30;;;5.40;99.90;;;;;;5028446;28;20037;-44
2021/12/12 00:46:38;;;;;;;18.10;9.10;;;5.50;99.90;;;;;;5034647;28;20064;-43
2021/12/12 00:49:04;;;;;;;15.35;9.40;;;5.50;99.90;;;;;;5031267;28;20021;-43
2021/12/12 00:51:35;;;;;;;16.27;8.82;;;5.50;99.90;;;;;;5036460;28;20122;-43
2021/12/12 00:54:01;;;;;;;15.75;8.43;;;5.50;99.90;;;;;;5028755;28;20013;-43
2021/12/12 00:56:26;;;;;;;16.42;9.10;;;5.60;99.90;;;;;;5039351;28;20025;-43
2021/12/12 00:58:53;;;;;;;18.85;9.02;;;5.50;99.90;;;;;;5028606;28;20535;-43
2021/12/12 01:01:24;;;;;;;15.75;8.00;;;5.50;99.90;;;;;;5039040;28;20631;-44
2021/12/12 01:03:55;;;;;;;15.30;8.23;;;5.60;99.90;;;;;;5028105;28;20021;-43
2021/12/12 01:06:22;;;;;;;15.77;7.78;;;5.60;99.90;;;;;;5035172;28;20028;-43
2021/12/12 01:08:49;;;;;;;15.85;7.63;;;5.60;99.90;;;;;;5027862;28;20029;-43
2021/12/12 01:11:32;;;;;;;14.65;6.95;;;5.60;99.90;;;;;;5039380;28;20762;-44
2021/12/12 01:13:59;;;;;;;17.23;6.93;;;5.60;99.90;;;;;;5027818;28;20036;-43
2021/12/12 01:16:50;;;;;;;13.77;7.32;;;5.60;99.90;;;;;;5040196;28;20040;-42
2021/12/12 01:19:21;;;;;;;12.88;6.30;;;5.60;99.90;;;;;;5026728;28;20057;-43
2021/12/12 01:21:51;;;;;;;14.95;6.88;;;5.70;99.90;;;;;;5035158;28;20777;-44
2021/12/12 01:24:24;;;;;;;15.23;7.03;;;5.70;99.90;;;;;;5047779;28;20487;-43
2021/12/12 01:26:50;;;;;;;12.55;6.50;;;5.70;99.90;;;;;;5034341;28;20021;-42
2021/12/12 01:29:16;;;;;;;12.38;6.43;;;5.70;99.90;;;;;;5047841;28;20017;-43
2021/12/12 01:31:48;;;;;;;13.75;6.53;;;5.70;99.90;;;;;;5033806;28;20492;-43
2021/12/12 01:34:19;;;;;;;10.93;6.53;;;5.70;99.90;;;;;;5047382;28;20028;-45
2021/12/12 01:39:54;;;;;;;12.75;6.03;;;5.70;99.90;;;;;;5026691;28;20136;-42
2021/12/12 01:42:34;;;;;;;14.93;6.28;;;5.70;99.90;;;;;;5034362;28;20033;-43
2021/12/12 01:45:21;;;;;;;13.02;5.82;;;5.70;99.90;;;;;;5047374;28;20025;-43
2021/12/12 01:47:54;;;;;;;9.82;5.88;;;5.80;99.90;;;;;;5034797;28;20094;-43
2021/12/12 01:50:35;;;;;;;10.48;5.32;;;5.80;99.90;;;;;;5046707;28;20086;-43
2021/12/12 01:53:04;;;;;;;13.23;5.45;;;5.80;99.90;;;;;;5035466;28;20477;-43
2021/12/12 01:55:38;;;;;;;12.63;6.50;;;5.80;99.90;;;;;;5027045;28;20044;-42
2021/12/12 01:58:12;;;;;;;16.35;6.00;;;5.80;99.90;;;;;;5034412;28;20086;-43
2021/12/12 02:00:46;;;;;;;11.23;5.03;;;5.80;99.90;;;;;;5026716;28;20029;-43
2021/12/12 02:03:14;;;;;;;14.63;5.95;;;5.70;99.90;;;;;;5035268;28;20033;-43
2021/12/12 02:05:40;;;;;;;16.20;6.75;;;5.70;99.90;;;;;;5047130;28;20037;-43
2021/12/12 02:08:09;;;;;;;12.45;5.65;;;5.70;99.90;;;;;;5032708;28;20035;-43
2021/12/12 02:10:43;;;;;;;9.80;5.55;;;5.70;99.90;;;;;;5046620;28;20086;-43
2021/12/12 02:13:14;;;;;;;13.68;5.70;;;5.70;99.90;;;;;;5033992;28;20393;-43
2021/12/12 02:15:43;;;;;;;12.35;5.53;;;5.70;99.90;;;;;;5046309;28;20083;-43
2021/12/12 02:18:13;;;;;;;10.45;5.60;;;5.70;99.90;;;;;;5033936;28;20029;-45
2021/12/12 02:20:54;;;;;;;11.45;5.72;;;5.70;99.90;;;;;;5046817;28;20041;-43
2021/12/12 02:23:35;;;;;;;11.65;5.85;;;5.70;99.90;;;;;;5033734;28;20464;-43
2021/12/12 02:37:07;;;;;;;10.52;5.88;;;5.70;99.90;;;;;;5044574;28;20043;-43
2021/12/12 02:39:33;;;;;;;12.93;5.40;;;5.70;99.90;;;;;;5039292;28;20473;-43
2021/12/12 02:42:06;;;;;;;14.85;5.70;;;5.70;99.90;;;;;;5050116;28;20040;-42
2021/12/12 02:44:35;;;;;;;10.38;5.65;;;5.70;99.90;;;;;;5037441;28;20032;-42
2021/12/12 02:47:09;;;;;;;14.52;6.88;;;5.80;99.90;;;;;;5050642;28;20104;-42
2021/12/12 02:52:09;;;;;;;14.20;6.30;;;5.70;99.90;;;;;;5050338;28;20779;-43
2021/12/12 02:54:35;;;;;;;13.93;6.10;;;5.70;99.90;;;;;;5037873;28;20028;-43
2021/12/12 02:57:00;;;;;;;16.75;6.68;;;5.80;99.90;;;;;;5049040;28;20028;-43
2021/12/12 02:59:26;;;;;;;15.88;6.68;;;5.80;99.90;;;;;;5037758;28;20064;-43
2021/12/12 03:02:12;;;;;;;16.77;6.40;;;5.80;99.90;;;;;;5049917;28;20047;-42
2021/12/12 03:04:39;;;;;;;16.23;6.88;;;5.70;99.90;;;;;;5036680;28;20037;-43
2021/12/12 03:07:08;;;;;;;10.07;5.53;;;5.70;99.90;;;;;;5049797;28;20044;-42
2021/12/12 03:09:38;;;;;;;12.98;6.25;;;5.80;99.90;;;;;;5039532;28;20122;-42
2021/12/12 03:12:19;;;;;;;16.13;6.55;;;5.80;99.90;;;;;;5047392;28;20028;-44
2021/12/12 03:14:47;;;;;;;14.77;6.55;;;5.80;99.90;;;;;;5039536;28;20030;-43
2021/12/12 03:17:20;;;;;;;12.70;6.20;;;5.80;99.90;;;;;;5048552;28;20041;-42
2021/12/12 03:19:52;;;;;;;10.10;5.72;;;5.80;99.90;;;;;;5039128;28;20104;-43
2021/12/12 03:22:18;;;;;;;11.90;5.70;;;5.80;99.90;;;;;;5047103;28;20534;-43
2021/12/12 03:24:44;;;;;;;9.50;5.70;;;5.80;99.90;;;;;;5041554;28;20022;-43
2021/12/12 03:27:10;;;;;;;8.45;5.25;;;5.80;99.90;;;;;;5044632;28;20033;-43
2021/12/12 03:29:37;;;;;;;15.75;6.03;;;5.80;99.90;;;;;;5044765;28;20083;-43
2021/12/12 03:32:08;;;;;;;12.68;6.13;;;5.90;99.90;;;;;;5040682;28;20546;-44
2021/12/12 03:34:38;;;;;;;13.57;6.60;;;5.80;99.90;;;;;;5045990;28;20083;-42
2021/12/12 03:37:07;;;;;;;9.07;5.10;;;5.90;99.90;;;;;;5040875;28;20117;-43
2021/12/12 03:39:37;;;;;;;12.52;5.95;;;5.90;99.90;;;;;;5046683;28;20028;-43
2021/12/12 03:42:11;;;;;;;13.88;7.45;;;5.90;99.90;;;;;;5039012;28;20395;-44
2021/12/12 03:44:39;;;;;;;14.68;6.88;;;5.90;99.90;;;;;;5047833;28;20032;-42
2021/12/12 03:47:15;;;;;;;12.10;6.60;;;5.90;99.90;;;;;;5037414;28;20032;-43
2021/12/12 03:49:41;;;;;;;10.30;5.75;;;5.90;99.90;;;;;;5047499;28;20642;-43
2021/12/12 03:52:08;;;;;;;12.15;6.38;;;5.90;99.90;;;;;;5038047;28;20111;-42
2021/12/12 03:54:34;;;;;;;11.52;6.38;;;6.00;99.90;;;;;;5039653;28;20072;-43
2021/12/12 03:57:00;;;;;;;10.65;6.18;;;6.00;99.90;;;;;;5040026;28;20026;-43
2021/12/12 03:59:26;;;;;;;15.77;6.70;;;6.00;99.90;;;;;;5029342;28;20040;-44
2021/12/12 04:01:53;;;;;;;9.48;5.85;;;6.00;99.90;;;;;;5041004;28;20037;-42
2021/12/12 04:04:30;;;;;;;10.73;5.93;;;6.00;99.90;;;;;;5029446;28;20080;-43
2021/12/12 04:06:56;;;;;;;9.70;5.82;;;6.00;99.90;;;;;;5040480;28;20114;-43
2021/12/12 04:09:23;;;;;;;9.75;5.80;;;6.00;99.90;;;;;;5029345;28;20072;-42
2021/12/12 04:11:52;;;;;;;11.20;6.03;;;6.00;99.90;;;;;;5040316;28;20037;-42
2021/12/12 04:14:19;;;;;;;10.60;6.22;;;6.10;99.90;;;;;;5029078;28;20021;-42
2021/12/12 04:16:50;;;;;;;9.40;6.32;;;6.00;99.90;;;;;;5038311;28;20029;-43
2021/12/12 04:19:15;;;;;;;9.50;5.72;;;6.00;99.90;;;;;;5030869;28;20057;-42
2021/12/12 04:21:41;;;;;;;11.30;6.05;;;6.10;99.90;;;;;;5035339;28;20094;-42
2021/12/12 04:24:08;;;;;;;10.80;5.57;;;6.10;99.90;;;;;;5033737;28;20553;-44
2021/12/12 04:26:37;;;;;;;12.43;6.00;;;6.10;99.90;;;;;;5033803;28;20048;-43
2021/12/12 04:29:11;;;;;;;9.68;5.82;;;6.10;99.90;;;;;;5034499;28;20104;-42
2021/12/12 04:31:40;;;;;;;7.65;5.63;;;6.10;99.90;;;;;;5032775;28;20397;-43
2021/12/12 04:34:06;;;;;;;9.27;5.47;;;6.10;99.90;;;;;;5035877;28;20031;-44
2021/12/12 04:36:36;;;;;;;7.45;5.72;;;6.10;99.90;;;;;;5029572;28;20049;-42
2021/12/12 04:39:26;;;;;;;7.43;5.30;;;6.10;99.90;;;;;;5038158;28;20028;-42
2021/12/12 04:41:56;;;;;;;7.15;5.50;;;6.20;99.90;;;;;;5031113;28;20071;-43
2021/12/12 04:44:25;;;;;;;7.82;5.43;;;6.10;99.90;;;;;;5036714;28;20025;-42
2021/12/12 04:49:56;;;;;;;12.27;6.45;;;6.20;99.90;;;;;;5034681;28;20617;-44
2021/12/12 04:52:44;;;;;;;8.35;6.13;;;6.20;99.90;;;;;;5033152;28;20468;-44
2021/12/12 04:55:24;;;;;;;8.85;5.38;;;6.20;99.90;;;;;;5032577;28;20052;-43
2021/12/12 04:58:03;;;;;;;11.70;6.35;;;6.20;99.90;;;;;;5033749;28;20461;-43
2021/12/12 05:00:45;;;;;;;8.25;5.60;;;6.20;99.90;;;;;;5030921;28;20034;-42
2021/12/12 05:03:16;;;;;;;7.97;5.50;;;6.20;99.90;;;;;;5036200;28;20040;-43
2021/12/12 05:05:54;;;;;;;7.25;5.35;;;6.20;99.90;;;;;;5030892;28;20104;-43
2021/12/12 05:08:23;;;;;;;11.18;6.22;;;6.30;99.90;;;;;;5036194;28;20028;-43
2021/12/12 05:11:17;;;;;;;8.18;5.35;;;6.30;99.90;;;;;;5030548;28;20025;-42
2021/12/12 05:14:07;;;;;;;8.23;5.88;;;6.30;99.90;;;;;;5035110;28;20040;-42
2021/12/12 05:16:37;;;;;;;12.90;6.53;;;6.30;99.90;;;;;;5007766;28;20030;-42
2021/12/12 05:19:15;;;;;;;9.60;6.00;;;6.30;99.90;;;;;;5034048;28;20618;-42
2021/12/12 05:21:51;;;;;;;9.98;6.15;;;6.40;99.90;;;;;;5007175;28;20410;-43
2021/12/12 05:24:19;;;;;;;6.97;5.18;;;6.40;99.90;;;;;;5035552;28;20025;-42
2021/12/12 05:26:55;;;;;;;9.32;5.85;;;6.40;99.90;;;;;;5027411;28;20037;-43
2021/12/12 05:29:22;;;;;;;6.32;5.25;;;6.40;99.90;;;;;;5038454;28;20376;-42
2021/12/12 05:31:52;;;;;;;8.10;5.78;;;6.40;99.90;;;;;;5027793;28;20045;-42
2021/12/12 05:34:19;;;;;;;5.85;4.82;;;6.50;99.90;;;;;;5036496;28;20312;-42
2021/12/12 05:36:47;;;;;;;8.65;5.47;;;6.50;99.90;;;;;;5030210;28;20091;-43
2021/12/12 05:39:13;;;;;;;8.25;5.70;;;6.50;99.90;;;;;;5033716;28;20016;-43
2021/12/12 05:41:39;;;;;;;8.65;5.88;;;6.50;99.90;;;;;;5032616;28;20033;-42
2021/12/12 05:44:06;;;;;;;7.53;5.28;;;6.50;99.90;;;;;;5031731;28;20024;-44
2021/12/12 05:46:32;;;;;;;7.43;5.80;;;6.50;99.90;;;;;;5033956;28;20112;-43
2021/12/12 05:49:00;;;;;;;10.02;6.03;;;6.50;99.90;;;;;;5029078;28;20401;-42
2021/12/12 05:51:28;;;;;;;8.32;5.93;;;6.50;99.90;;;;;;5037090;28;20331;-43
2021/12/12 05:53:54;;;;;;;6.93;6.10;;;6.50;99.90;;;;;;5029306;28;20029;-44
2021/12/12 05:56:23;;;;;;;8.07;5.70;;;6.60;99.90;;;;;;5036086;28;20017;-43
2021/12/12 05:58:49;;;;;;;8.68;6.28;;;6.60;99.90;;;;;;5045471;28;20028;-43
2021/12/12 06:01:15;;;;;;;12.38;6.18;;;6.60;99.90;;;;;;5035058;28;20547;-42
2021/12/12 06:03:43;;;;;;;7.95;6.32;;;6.60;99.90;;;;;;5046573;28;20462;-43
2021/12/12 06:06:15;;;;;;;11.10;6.32;;;6.70;99.90;;;;;;5038984;28;20063;-42
2021/12/12 06:08:43;;;;;;;8.65;5.85;;;6.70;99.90;;;;;;5026729;28;20481;-42
2021/12/12 06:11:09;;;;;;;6.00;4.75;;;6.70;99.90;;;;;;5039022;28;20021;-43
2021/12/12 06:13:37;;;;;;;9.80;5.93;;;6.70;99.90;;;;;;5029418;28;20025;-42
2021/12/12 06:16:04;;;;;;;7.70;6.13;;;6.70;99.90;;;;;;5042899;28;20020;-42
2021/12/12 06:18:32;;;;;;;6.30;5.00;;;6.70;99.90;;;;;;5010916;28;20565;-42
2021/12/12 06:20:58;;;;;;;7.65;5.88;;;6.80;99.90;;;;;;5034675;28;20060;-43
2021/12/12 06:23:25;;;;;;;9.45;6.25;;;6.80;99.90;;;;;;5033023;28;20121;-43
2021/12/12 06:25:52;;;;;;;7.68;6.57;;;6.80;99.90;;;;;;5038535;28;20029;-42
2021/12/12 06:28:29;;;;;;;7.15;5.90;;;6.80;99.90;;;;;;5034945;28;20026;-43
2021/12/12 06:30:55;;;;;;;9.57;6.63;;;6.80;99.90;;;;;;5037468;28;20480;-42
2021/12/12 06:33:21;;;;;;;9.40;6.82;;;6.80;99.90;;;;;;5036315;28;20474;-42
2021/12/12 06:35:48;;;;;;;8.95;7.53;;;6.90;99.90;;;;;;5033265;28;20489;-43
2021/12/12 06:38:14;;;;;;;11.10;7.30;;;6.90;99.90;;;;;;5038835;28;20787;-42
2021/12/12 06:40:42;;;;;;;8.15;6.43;;;6.90;99.90;;;;;;5032545;28;20033;-42
2021/12/12 06:43:10;;;;;;;8.98;6.03;;;6.90;99.90;;;;;;5040595;28;20083;-44
2021/12/12 06:45:36;;;;;;;7.80;7.00;;;6.90;99.90;;;;;;5031853;28;20028;-42
2021/12/12 06:48:06;;;;;;;9.43;7.00;;;6.90;99.90;;;;;;5041218;28;20722;-42
2021/12/12 06:50:36;;;;;;;8.73;6.68;;;6.90;99.90;;;;;;5031016;28;20036;-42
2021/12/12 06:53:03;;;;;;;8.55;6.40;;;6.90;99.90;;;;;;5041637;28;20021;-42
2021/12/12 06:55:30;;;;;;;9.00;7.00;;;7.00;99.90;;;;;;5029721;28;20477;-43
2021/12/12 06:57:56;;;;;;;8.95;7.00;;;7.00;99.90;;;;;;5037589;28;20448;-43
2021/12/12 07:00:24;;;;;;;10.45;7.30;;;7.00;99.90;;;;;;5050307;28;20044;-43
2021/12/12 07:02:50;;;;;;;7.60;6.15;;;7.00;99.90;;;;;;5036196;28;20863;-44
2021/12/12 07:05:24;;;;;;;7.78;6.30;;;7.00;99.90;;;;;;5050387;28;20082;-42
2021/12/12 07:07:52;;;;;;;8.93;6.60;;;7.00;99.90;;;;;;5037555;28;20057;-42
2021/12/12 07:10:22;;;;;;;8.05;6.15;;;7.10;99.90;;;;;;5049958;28;20116;-43
2021/12/12 07:12:54;;;;;;;8.85;6.88;;;7.10;99.90;;;;;;5038431;28;20362;-43
2021/12/12 07:15:22;;;;;;;12.77;7.32;;;7.10;99.90;;;;;;5049669;28;20041;-43
2021/12/12 07:17:48;;;;;;;10.57;6.82;;;7.10;99.90;;;;;;5039801;28;20033;-43
2021/12/12 07:20:15;;;;;;;10.60;7.47;;;7.10;99.90;;;;;;5046858;28;20549;-43
2021/12/12 07:22:42;;;;;;;10.25;7.45;;;7.10;99.90;;;;;;5042249;28;20037;-43
2021/12/12 07:25:08;;;;;;;8.82;7.28;;;7.20;99.90;;;;;;5043643;28;20021;-43
2021/12/12 07:27:34;;;;;;;10.80;7.68;;;7.10;99.90;;;;;;5044446;28;20506;-43
2021/12/12 07:30:01;;;;;;;14.35;8.05;;;7.20;99.90;;;;;;5041795;28;20021;-43
2021/12/12 07:32:27;;;;;;;10.63;7.22;;;7.20;99.90;;;;;;5046717;28;20039;-43
2021/12/12 07:34:53;;;;;;;9.73;7.32;;;7.20;99.90;;;;;;5039694;28;20059;-41
2021/12/12 07:37:20;;;;;;;10.35;8.32;;;7.20;99.90;;;;;;5047665;28;20504;-41
2021/12/12 07:39:46;;;;;;;13.32;9.32;;;7.20;99.90;;;;;;5037868;28;20052;-43
2021/12/12 07:42:15;;;;;;;10.88;8.05;;;7.30;99.90;;;;;;5048176;28;20075;-43
2021/12/12 07:44:43;;;;;;;11.80;7.85;;;7.30;99.90;;;;;;5040337;28;20033;-43
2021/12/12 07:47:12;;;;;;;11.95;7.47;;;7.30;99.90;;;;;;5029996;28;20057;-43
2021/12/12 07:49:43;;;;;;;12.20;8.30;;;7.30;99.90;;;;;;5041750;28;20014;-42
2021/12/12 07:52:12;;;;;;;13.15;8.60;;;7.30;99.90;;;;;;5028781;28;20033;-42
2021/12/12 07:54:39;;;;;;;11.75;8.35;;;7.40;99.90;;;;;;5041210;28;20021;-43
2021/12/12 07:57:06;;;;;;;12.30;7.82;;;7.40;99.90;;;;;;5029299;28;20483;-42
2021/12/12 07:59:35;;;;;;;13.00;8.13;;;7.40;99.90;;;;;;5040544;28;20473;-43
2021/12/12 08:02:02;;;;;;;12.63;8.82;;;7.40;99.90;;;;;;5009225;28;20060;-43
2021/12/12 08:04:30;;;;;;;16.10;9.45;;;7.40;99.90;;;;;;5033989;28;20024;-43
2021/12/12 08:06:56;;;;;;;12.40;8.77;;;7.50;99.90;;;;;;5030359;28;20040;-42
2021/12/12 08:09:23;;;;;;;16.65;8.57;;;7.50;99.90;;;;;;5037519;28;20013;-43
2021/12/12 08:11:50;;;;;;;16.25;10.05;;;7.50;99.90;;;;;;5032766;28;20044;-43
2021/12/12 08:14:22;;;;;;;12.65;8.73;;;7.50;99.90;;;;;;5034212;28;20377;-42
2021/12/12 08:16:49;;;;;;;13.07;9.15;;;7.60;99.90;;;;;;5034674;28;20028;-43
2021/12/12 08:19:18;;;;;;;16.42;10.32;;;7.60;99.90;;;;;;5033090;28;20412;-42
2021/12/12 08:21:44;;;;;;;15.85;9.85;;;7.60;99.90;;;;;;5035527;28;20572;-42
2021/12/12 08:24:12;;;;;;;12.82;9.13;;;7.60;99.90;;;;;;5030679;28;20025;-42
2021/12/12 08:26:41;;;;;;;15.32;9.20;;;7.60;99.90;;;;;;5038315;28;20025;-42
2021/12/12 08:29:08;;;;;;;22.35;10.93;;;7.70;99.90;;;;;;5029455;28;20079;-43
2021/12/12 08:31:35;;;;;;;19.55;11.05;;;7.70;99.90;;;;;;5039433;28;20385;-43
2021/12/12 08:34:02;;;;;;;16.73;9.38;;;7.70;99.90;;;;;;5028560;28;20029;-42
2021/12/12 08:36:28;;;;;;;17.92;9.93;;;7.70;99.90;;;;;;5039341;28;20013;-44
2021/12/12 08:38:54;;;;;;;15.07;9.40;;;7.80;99.90;;;;;;5025096;28;20030;-42
2021/12/12 08:41:20;;;;;;;16.52;10.75;;;7.80;99.90;;;;;;5038168;28;20037;-43
2021/12/12 08:43:46;;;;;;;22.67;12.48;;;7.80;99.90;;;;;;5027395;28;20120;-43
2021/12/12 08:46:14;;;;;;;18.27;10.40;;;7.80;99.90;;;;;;5040021;28;20120;-42
2021/12/12 08:48:44;;;;;;;16.73;10.65;;;7.90;99.90;;;;;;5025880;28;20488;-42
2021/12/12 08:51:14;;;;;;;18.08;10.52;;;7.80;99.90;;;;;;5038509;28;20048;-42
2021/12/12 08:53:42;;;;;;;18.88;10.98;;;7.90;99.90;;;;;;5029740;28;20112;-42
2021/12/12 08:56:18;;;;;;;18.35;10.50;;;7.90;99.90;;;;;;5036208;28;20028;-43
2021/12/12 08:58:45;;;;;;;12.75;9.07;;;7.90;99.90;;;;;;5046687;28;20078;-42
2021/12/12 09:01:15;;;;;;;16.17;10.52;;;7.90;99.90;;;;;;5036305;28;20037;-43
2021/12/12 09:04:01;;;;;;;14.65;9.70;;;8.00;99.90;;;;;;5043260;28;20037;-43
2021/12/12 09:06:31;;;;;;;12.95;8.70;;;8.00;99.90;;;;;;5035129;28;20064;-42
2021/12/12 09:09:15;;;;;;;16.30;10.70;;;8.00;99.90;;;;;;5027034;28;20052;-42
2021/12/12 09:11:51;;;;;;;13.45;9.10;;;8.10;99.90;;;;;;5036123;28;20060;-43
2021/12/12 09:14:21;;;;;;;18.40;10.50;;;8.10;99.90;;;;;;5026876;28;20033;-42
2021/12/12 09:16:59;;;;;;;15.93;10.57;;;8.10;99.90;;;;;;5034077;28;20139;-43
2021/12/12 09:19:38;;;;;;;19.55;12.15;;;8.10;99.90;;;;;;5027611;28;20061;-43
2021/12/12 09:22:14;;;;;;;17.98;11.15;;;8.10;99.90;;;;;;5037210;28;20103;-42
2021/12/12 09:25:15;;;;;;;16.75;10.75;;;8.10;99.90;;;;;;5026876;28;20607;-42
2021/12/12 09:27:46;;;;;;;14.20;10.85;;;8.20;99.90;;;;;;5039182;28;20411;-43
2021/12/12 09:30:21;;;;;;;15.10;10.43;;;8.20;99.90;;;;;;5028068;28;20055;-44
2021/12/12 09:33:01;;;;;;;15.30;10.63;;;8.20;99.90;;;;;;5039167;28;20116;-44
2021/12/12 09:35:33;;;;;;;18.08;11.57;;;8.20;99.90;;;;;;5027526;28;20165;-45
2021/12/12 09:38:08;;;;;;;20.30;11.70;;;8.30;99.90;;;;;;5038841;28;20021;-43
2021/12/12 09:41:05;;;;;;;22.23;12.50;;;8.30;99.90;;;;;;5027605;28;20107;-42
2021/12/12 09:43:34;;;;;;;19.50;12.43;;;8.30;99.90;;;;;;5034477;28;20071;-43
2021/12/12 09:46:30;;;;;;;21.80;12.93;;;8.30;99.90;;;;;;5046718;28;20495;-44
2021/12/12 09:53:02;;;;;;;23.27;13.07;;;8.40;99.90;;;;;;5042678;28;20151;-42
2021/12/12 09:55:42;;;;;;;17.33;12.65;;;8.40;99.90;;;;;;5044463;28;20060;-42
2021/12/12 09:58:50;;;;;;;20.23;12.70;;;8.40;99.90;;;;;;5037746;28;20028;-43
2021/12/12 10:01:24;;;;;;;21.00;13.05;;;8.40;99.90;;;;;;5008057;28;20117;-42
2021/12/12 10:04:15;;;;;;;25.17;13.80;;;8.40;99.90;;;;;;5036866;28;20025;-43
2021/12/12 10:06:47;;;;;;;23.58;13.85;;;8.50;99.90;;;;;;5026139;28;20056;-43
2021/12/12 10:09:16;;;;;;;23.58;13.10;;;8.50;99.90;;;;;;5039366;28;20025;-43
2021/12/12 10:11:48;;;;;;;21.27;13.00;;;8.50;99.90;;;;;;5027306;28;20485;-43
2021/12/12 10:14:34;;;;;;;20.48;13.80;;;8.60;99.90;;;;;;5038590;28;20492;-44
2021/12/12 10:17:27;;;;;;;20.40;13.43;;;8.60;99.90;;;;;;5027186;28;20034;-42
2021/12/12 10:20:15;;;;;;;19.83;12.82;;;8.60;99.90;;;;;;5036865;28;20049;-43
2021/12/12 10:22:59;;;;;;;17.67;12.30;;;8.70;99.90;;;;;;5028002;28;20072;-42
2021/12/12 10:26:01;;;;;;;19.70;12.73;;;8.70;99.90;;;;;;5038065;28;20029;-42
2021/12/12 10:28:32;;;;;;;20.95;13.88;;;8.70;99.90;;;;;;5028904;28;20030;-44
2021/12/12 10:31:07;;;;;;;20.08;13.57;;;8.80;99.90;;;;;;5035196;28;20026;-43
2021/12/12 10:33:39;;;;;;;17.60;12.32;;;8.80;99.90;;;;;;5034082;28;20096;-43
2021/12/12 10:36:40;;;;;;;17.60;11.82;;;8.80;99.90;;;;;;5021424;28;20068;-43
2021/12/12 10:39:38;;;;;;;15.43;11.25;;;8.80;99.90;;;;;;5032874;28;20392;-43
2021/12/12 10:42:14;;;;;;;16.17;11.20;;;8.90;99.90;;;;;;5002854;28;20054;-43
2021/12/12 10:45:00;;;;;;;14.35;11.07;;;8.90;99.90;;;;;;5034679;28;20014;-43
2021/12/12 10:47:35;;;;;;;13.63;9.90;;;8.90;99.90;;;;;;5025031;28;20397;-42
2021/12/12 10:50:10;;;;;;;13.60;10.15;;;9.00;99.90;;;;;;5035931;28;20044;-42
2021/12/12 10:53:05;;;;;;;12.40;9.20;;;9.00;99.90;;;;;;5039510;28;20465;-44
2021/12/12 10:55:48;;;;;;;11.90;10.23;;;9.00;99.90;;;;;;5029421;28;20049;-43
2021/12/12 10:58:25;;;;;;;11.60;9.20;;;9.00;99.90;;;;;;5027460;28;20029;-44
2021/12/12 11:01:07;;;;;;;12.98;10.50;;;9.00;99.90;;;;;;5037140;28;21155;-44
2021/12/12 11:03:42;;;;;;;11.48;9.55;;;9.10;99.90;;;;;;5039122;28;20048;-44
2021/12/12 11:06:22;;;;;;;13.63;10.00;;;9.10;99.90;;;;;;5041083;28;20018;-43
2021/12/12 11:08:57;;;;;;;13.75;10.18;;;9.10;99.90;;;;;;5039752;28;20025;-44
2021/12/12 11:11:26;;;;;;;11.98;10.05;;;9.10;99.90;;;;;;5038257;28;20037;-43
2021/12/12 11:14:05;;;;;;;10.13;8.88;;;9.10;99.90;;;;;;5033961;28;20041;-43
2021/12/12 11:16:38;;;;;;;12.40;9.05;;;9.10;99.90;;;;;;5033813;28;20025;-43
2021/12/12 11:19:12;;;;;;;11.35;8.63;;;9.20;99.90;;;;;;5029942;28;20514;-43
2021/12/12 11:21:43;;;;;;;12.30;8.68;;;9.10;99.90;;;;;;5032633;28;20555;-43
2021/12/12 11:24:21;;;;;;;10.50;8.45;;;9.20;99.90;;;;;;5027709;28;20120;-43
2021/12/12 11:27:06;;;;;;;9.02;7.38;;;9.20;99.90;;;;;;5041297;28;20033;-44
2021/12/12 11:30:24;;;;;;;9.60;7.95;;;9.20;99.90;;;;;;5035569;28;20481;-42
2021/12/12 11:32:52;;;;;;;11.60;9.10;;;9.20;99.90;;;;;;5010990;28;20804;-42
2021/12/12 11:35:21;;;;;;;10.55;8.80;;;9.30;99.90;;;;;;5030395;28;20024;-42
2021/12/12 11:38:07;;;;;;;8.82;7.55;;;9.30;99.90;;;;;;5039807;28;20111;-44
2021/12/12 11:40:47;;;;;;;12.93;9.82;;;9.30;99.90;;;;;;5046154;28;20061;-44
2021/12/12 11:43:24;;;;;;;11.23;8.82;;;9.30;99.90;;;;;;5031209;28;20072;-43
2021/12/12 11:45:56;;;;;;;9.55;7.95;;;9.40;99.90;;;;;;5031821;28;20100;-43
2021/12/12 11:48:49;;;;;;;11.02;8.40;;;9.40;99.90;;;;;;5039004;28;20098;-43
2021/12/12 11:51:27;;;;;;;10.32;9.23;;;9.40;99.90;;;;;;5043308;28;20063;-43
2021/12/12 11:54:03;;;;;;;10.48;8.27;;;9.50;99.90;;;;;;5041449;28;20069;-42
2021/12/12 11:56:34;;;;;;;8.63;7.72;;;9.50;99.90;;;;;;5043297;28;20083;-42
2021/12/12 11:59:07;;;;;;;10.75;8.07;;;9.50;99.90;;;;;;5028296;28;20026;-43
2021/12/12 12:01:53;;;;;;;;;;;9.50;99.90;;;;;;5032324;28;20038;-43
2021/12/12 12:04:38;;;;;;;11.52;8.57;;;9.60;99.90;;;;;;5033294;28;20207;-43
2021/12/12 12:07:24;;;;;;;9.40;7.75;;;9.60;99.90;;;;;;5032312;28;20044;-43
2021/12/12 12:09:58;;;;;;;9.70;7.57;;;9.50;99.90;;;;;;5000107;28;20033;-42
2021/12/12 12:12:50;;;;;;;9.95;8.20;;;9.60;99.90;;;;;;5031960;28;20447;-42
2021/12/12 12:15:55;;;;;;;9.63;8.27;;;9.60;99.90;;;;;;5038350;28;20026;-43
2021/12/12 12:18:30;;;;;;;10.63;8.52;;;9.60;99.90;;;;;;5038694;28;20033;-42
2021/12/12 12:21:19;;;;;;;11.38;8.55;;;9.60;99.90;;;;;;5027604;28;20083;-42
2021/12/12 12:26:52;;;;;;;9.70;8.70;;;9.70;99.90;;;;;;5029175;28;20033;-43
2021/12/12 12:29:33;;;;;;;10.50;8.88;;;9.70;99.90;;;;;;5032088;28;20022;-42
2021/12/12 12:32:07;;;;;;;9.93;8.70;;;9.70;99.90;;;;;;5029939;28;20116;-43
2021/12/12 12:34:47;;;;;;;10.48;8.50;;;9.70;99.90;;;;;;5038795;28;20087;-43
2021/12/12 12:37:50;;;;;;;11.90;9.65;;;9.70;99.90;;;;;;5030022;28;20076;-44
2021/12/12 12:40:39;;;;;;;9.93;8.63;;;9.80;99.90;;;;;;5035505;28;20037;-42
2021/12/12 12:43:20;;;;;;;9.50;8.60;;;9.80;99.90;;;;;;5038668;28;20048;-43
2021/12/12 12:46:36;;;;;;;10.50;9.13;;;9.90;99.90;;;;;;5035765;28;20041;-43
2021/12/12 12:50:03;;;;;;;11.00;9.10;;;9.90;99.90;;;;;;5014897;28;20061;-43
2021/12/12 12:53:10;;;;;;;9.73;8.57;;;9.90;99.90;;;;;;5037813;28;20112;-42
2021/12/12 12:56:04;;;;;;;10.38;9.18;;;9.90;99.90;;;;;;5026951;28;20035;-43
2021/12/12 12:58:46;;;;;;;10.60;9.27;;;9.80;99.90;;;;;;5042426;28;20119;-42
2021/12/12 13:01:42;;;;;;;10.93;9.55;;;9.80;99.90;;;;;;5033182;28;20065;-42
2021/12/12 13:04:22;;;;;;;13.27;10.60;;;9.80;99.90;;;;;;5028825;28;20106;-42
2021/12/12 13:06:57;;;;;;;10.35;9.00;;;9.90;99.90;;;;;;5044993;28;20116;-42
2021/12/12 13:09:45;;;;;;;11.25;9.13;;;9.90;99.90;;;;;;5038103;28;20048;-43
2021/12/12 13:12:16;;;;;;;11.10;9.93;;;9.90;99.90;;;;;;5045479;28;20070;-42
2021/12/12 13:15:15;;;;;;;10.07;8.95;;;9.90;99.90;;;;;;5028549;28;20061;-42
2021/12/12 13:18:06;;;;;;;10.55;9.20;;;10.00;99.90;;;;;;5023477;28;20051;-43
2021/12/12 13:20:53;;;;;;;11.43;10.00;;;9.90;99.90;;;;;;5028712;28;20072;-43
2021/12/12 13:23:42;;;;;;;11.70;10.13;;;10.00;99.90;;;;;;5023710;28;20037;-43
2021/12/12 13:26:29;;;;;;;10.13;9.05;;;10.00;99.90;;;;;;5040492;28;20078;-42
2021/12/12 13:29:14;;;;;;;12.52;11.07;;;10.00;99.90;;;;;;5036384;28;20034;-42
2021/12/12 13:31:50;;;;;;;11.57;10.07;;;10.00;99.90;;;;;;5024062;28;20036;-42
2021/12/12 13:34:36;;;;;;;10.40;9.30;;;10.00;99.90;;;;;;5025446;28;20021;-43
2021/12/12 13:37:13;;;;;;;10.48;9.48;;;10.10;99.90;;;;;;5028251;28;20028;-43
2021/12/12 13:39:53;;;;;;;11.15;9.63;;;10.00;99.90;;;;;;5034362;28;20043;-43
2021/12/12 13:42:37;;;;;;;11.32;9.73;;;10.10;99.90;;;;;;5030045;28;20572;-44
2021/12/12 13:45:23;;;;;;;12.52;10.63;;;10.10;99.90;;;;;;5041638;28;20028;-43
2021/12/12 13:48:03;;;;;;;12.35;10.65;;;10.10;99.90;;;;;;5041142;28;20028;-44
2021/12/12 13:50:48;;;;;;;11.43;9.88;;;10.10;99.90;;;;;;5039357;28;20690;-42